Time;durP1;ratioP1;P1;durP2;ratioP2;P2;SDS_P1;SDS_P2;PMS_P1;PMS_P2;Temp;Humidity;BMP_temperature;BMP_pressure;BME280_temperature;BME280_humidity;BME280_pressure;Samples;Min_cycle;Max_cycle;Signal;HPM_P1;HPM_P2
2021/12/17 00:04:51;;;;;;;9.85;6.58;;;;;;;5.25;76.26;99443.00;1790972;80;21542;-40
2021/12/17 00:06:53;;;;;;;7.97;5.20;;;;;;;5.22;76.47;99440.97;1787613;80;21496;-40
2021/12/17 00:09:21;;;;;;;7.42;5.10;;;;;;;5.21;76.39;99446.10;1790741;79;21001;-40
2021/12/17 00:11:49;;;;;;;11.85;5.03;;;;;;;5.18;76.30;99448.10;1790887;79;21566;-40
2021/12/17 00:14:24;;;;;;;7.90;4.78;;;;;;;5.22;76.29;99452.52;1790686;80;21025;-40
2021/12/17 00:16:43;;;;;;;6.97;4.33;;;;;;;5.19;76.21;99446.97;1789693;79;22352;-40
2021/12/17 00:19:36;;;;;;;5.10;3.27;;;;;;;5.13;76.01;99449.03;1772872;79;21014;-40
2021/12/17 00:48:23;;;;;;;3.83;1.72;;;;;;;5.13;74.41;99443.66;1767346;81;21467;-40
2021/12/17 00:49:00;;;;;;;2.52;1.50;;;;;;;5.10;74.46;99451.58;1764137;81;21004;-40
2021/12/17 00:54:21;;;;;;;4.85;2.02;;;;;;;5.09;74.41;99436.02;1780758;80;20964;-40
2021/12/17 00:56:54;;;;;;;2.45;1.90;;;;;;;5.12;74.46;99439.97;1773461;79;21107;-40
2021/12/17 00:59:21;;;;;;;4.17;2.17;;;;;;;5.07;74.49;99431.53;1774679;80;21008;-40
2021/12/17 01:01:47;;;;;;;8.25;2.70;;;;;;;5.03;74.70;99428.47;1776559;80;20982;-40
2021/12/17 01:04:16;;;;;;;4.80;2.80;;;;;;;5.02;74.78;99433.59;1768991;80;20979;-40
2021/12/17 01:06:42;;;;;;;4.40;2.95;;;;;;;5.04;74.94;99424.64;1773046;80;21046;-40
2021/12/17 01:09:12;;;;;;;7.03;3.40;;;;;;;5.05;74.87;99420.85;1780449;79;21100;-40
2021/12/17 01:11:40;;;;;;;6.17;3.33;;;;;;;4.99;75.13;99428.30;1763795;81;21041;-40
2021/12/17 01:14:08;;;;;;;4.92;2.92;;;;;;;4.95;75.36;99427.91;1757377;81;21028;-40
2021/12/17 01:16:40;;;;;;;5.78;2.33;;;;;;;4.93;75.46;99422.09;1756716;79;21581;-40
2021/12/17 01:19:29;;;;;;;4.75;2.20;;;;;;;4.93;75.55;99418.85;1788284;79;21050;-40
2021/12/17 01:22:14;;;;;;;5.95;2.10;;;;;;;4.97;75.51;99421.68;1777162;79;21780;-40
2021/12/17 01:24:50;;;;;;;3.58;1.90;;;;;;;4.92;75.36;99419.16;1757233;81;21030;-40
2021/12/17 01:35:44;;;;;;;8.45;1.70;;;;;;;4.80;75.60;99407.72;1766516;80;21138;-40
2021/12/17 01:43:47;;;;;;;8.63;2.17;;;;;;;4.69;75.72;99407.30;1777876;80;21015;-40
2021/12/17 01:46:21;;;;;;;8.40;1.90;;;;;;;4.73;75.60;99408.23;1771710;80;21066;-40
2021/12/17 01:49:07;;;;;;;8.45;1.82;;;;;;;4.72;75.61;99409.34;1778111;79;21116;-40
2021/12/17 01:59:18;;;;;;;7.25;1.77;;;;;;;4.64;75.76;99401.30;1777992;80;20955;-40
2021/12/17 01:59:35;;;;;;;5.10;1.70;;;;;;;4.70;75.78;99400.00;1776465;80;21078;-40
2021/12/17 02:02:01;;;;;;;3.87;1.47;;;;;;;4.75;75.54;99400.63;1777454;79;21140;-40
2021/12/17 02:04:31;;;;;;;3.67;1.70;;;;;;;4.72;75.41;99402.62;1778310;79;21015;-40
2021/12/17 02:06:59;;;;;;;4.65;1.80;;;;;;;4.69;75.53;99395.21;1780668;79;21048;-40
2021/12/17 02:10:12;;;;;;;4.72;1.60;;;;;;;4.66;75.57;99401.20;1771999;81;21036;-40
2021/12/17 02:12:30;;;;;;;4.33;2.10;;;;;;;4.71;75.51;99402.93;1768628;81;21091;-40
2021/12/17 02:21:08;;;;;;;4.30;2.00;;;;;;;4.59;75.68;99395.55;1771972;81;21076;-40
2021/12/17 02:28:55;;;;;;;7.62;2.30;;;;;;;4.62;76.06;99393.55;1750329;81;21111;-40
2021/12/17 02:31:33;;;;;;;3.87;1.77;;;;;;;4.56;76.16;99390.00;1769932;80;21040;-40
2021/12/17 02:34:18;;;;;;;3.60;2.00;;;;;;;4.55;76.30;99393.23;1772076;79;22143;-40
2021/12/17 02:36:39;;;;;;;7.78;2.05;;;;;;;4.54;76.36;99386.31;1770807;80;20975;-40
2021/12/17 02:40:03;;;;;;;5.35;2.27;;;;;;;4.56;76.29;99388.66;1759406;81;21064;-40
2021/12/17 02:47:12;;;;;;;7.42;2.17;;;;;;;4.50;76.69;99388.06;1759531;79;21607;-40
2021/12/17 02:49:43;;;;;;;4.83;2.05;;;;;;;4.49;76.56;99383.00;1759454;80;21009;-40
2021/12/17 02:52:09;;;;;;;4.78;1.80;;;;;;;4.55;76.54;99385.77;1759666;80;21017;-40
2021/12/17 02:54:37;;;;;;;5.00;2.00;;;;;;;4.59;76.48;99383.47;1759555;81;21958;-40
2021/12/17 02:57:05;;;;;;;7.20;2.50;;;;;;;4.57;76.47;99384.33;1759438;81;20898;-40
2021/12/17 02:59:33;;;;;;;5.65;2.05;;;;;;;4.56;76.51;99383.29;1759945;81;20957;-40
2021/12/17 03:02:02;;;;;;;7.80;1.95;;;;;;;4.59;76.36;99378.64;1759552;80;21515;-40
2021/12/17 03:04:29;;;;;;;5.58;2.00;;;;;;;4.62;76.22;99377.45;1760024;81;21015;-40
2021/12/17 03:06:58;;;;;;;4.45;1.90;;;;;;;4.67;76.18;99373.80;1759668;81;21894;-40
2021/12/17 03:09:45;;;;;;;5.75;2.10;;;;;;;4.63;76.18;99375.00;1759843;81;20954;-40
2021/12/17 03:11:54;;;;;;;6.42;2.08;;;;;;;4.60;76.21;99371.59;1756860;81;21060;-40
2021/12/17 03:14:20;;;;;;;8.50;2.25;;;;;;;4.61;76.16;99377.20;1759807;80;21041;-40
2021/12/17 03:16:59;;;;;;;7.10;2.00;;;;;;;4.64;76.03;99380.61;1759884;80;21026;-40
2021/12/17 03:23:27;;;;;;;7.17;2.50;;;;;;;4.65;76.00;99372.77;1761788;79;21057;-40
2021/12/17 03:24:39;;;;;;;8.10;2.10;;;;;;;4.54;76.12;99365.39;1785642;79;20933;-40
2021/12/17 03:27:06;;;;;;;5.72;2.00;;;;;;;4.49;76.20;99365.55;1759524;81;21028;-40
2021/12/17 03:29:34;;;;;;;5.78;2.27;;;;;;;4.48;76.24;99364.77;1759654;80;21014;-39
2021/12/17 03:32:04;;;;;;;5.85;1.95;;;;;;;4.46;76.30;99364.28;1759880;79;21532;-40
2021/12/17 03:34:31;;;;;;;8.05;2.35;;;;;;;4.41;76.39;99359.63;1764149;80;21024;-40
2021/12/17 03:36:57;;;;;;;7.90;2.10;;;;;;;4.36;76.39;99360.03;1783973;79;20941;-40
2021/12/17 03:39:27;;;;;;;5.45;2.08;;;;;;;4.37;76.36;99359.48;1807736;78;21001;-40
2021/12/17 03:41:55;;;;;;;5.47;2.08;;;;;;;4.42;76.31;99351.81;1808019;79;20994;-40
2021/12/17 03:44:32;;;;;;;6.83;2.02;;;;;;;4.44;76.20;99351.75;1807477;79;22005;-40
2021/12/17 03:47:04;;;;;;;8.15;2.47;;;;;;;4.32;75.85;99338.17;1807773;79;20992;-40
2021/12/17 03:49:35;;;;;;;7.47;2.20;;;;;;;4.34;76.10;99354.76;1805744;79;21012;-40
2021/12/17 03:52:06;;;;;;;;;;;;;;;4.36;76.12;99351.19;1810322;79;21581;-40
2021/12/17 03:54:35;;;;;;;4.87;1.77;;;;;;;4.40;76.03;99352.16;1808031;78;20416;-40
2021/12/17 03:57:10;;;;;;;8.15;1.98;;;;;;;4.32;76.30;99357.75;1807921;79;21110;-40
2021/12/17 03:59:37;;;;;;;5.00;1.90;;;;;;;4.33;76.20;99357.99;1807883;78;20949;-40
2021/12/17 04:02:04;;;;;;;5.80;1.70;;;;;;;4.33;76.18;99356.66;1807756;78;21080;-40
2021/12/17 04:04:32;;;;;;;6.35;1.87;;;;;;;4.35;76.15;99355.80;1807826;78;20910;-40
2021/12/17 04:07:06;;;;;;;4.80;2.10;;;;;;;4.37;76.00;99352.22;1789869;79;21021;-40
2021/12/17 04:09:41;;;;;;;6.20;2.08;;;;;;;4.41;75.88;99347.00;1806001;79;21140;-40
2021/12/17 04:12:15;;;;;;;5.58;2.00;;;;;;;4.34;75.81;99349.39;1807117;79;20913;-40
2021/12/17 04:14:44;;;;;;;6.47;1.95;;;;;;;4.29;75.86;99350.90;1805336;79;21463;-40
2021/12/17 04:17:13;;;;;;;4.65;1.50;;;;;;;4.31;75.83;99350.80;1807832;78;21519;-40
2021/12/17 04:19:39;;;;;;;6.53;2.25;;;;;;;4.38;75.69;99347.64;1807842;79;21068;-40
2021/12/17 04:22:07;;;;;;;5.83;2.17;;;;;;;4.41;75.24;99344.86;1807789;79;21145;-40
2021/12/17 04:24:34;;;;;;;6.97;2.80;;;;;;;4.39;75.29;99350.57;1807863;79;21558;-40
2021/12/17 04:27:02;;;;;;;9.20;2.58;;;;;;;4.38;75.32;99345.75;1807821;79;21078;-40
2021/12/17 04:29:30;;;;;;;6.00;2.08;;;;;;;4.40;75.24;99340.63;1807877;79;21543;-40
2021/12/17 04:31:57;;;;;;;5.35;2.00;;;;;;;4.43;75.17;99342.11;1807835;79;21237;-40
2021/12/17 04:34:26;;;;;;;9.75;2.30;;;;;;;4.45;74.99;99335.88;1807873;79;21949;-41
2021/12/17 04:36:55;;;;;;;9.38;2.25;;;;;;;4.43;75.07;99339.98;1807694;79;21468;-40
2021/12/17 04:39:24;;;;;;;5.40;1.90;;;;;;;4.41;75.22;99341.62;1807044;79;21065;-40
2021/12/17 04:41:58;;;;;;;5.45;1.67;;;;;;;4.38;75.24;99347.64;1807986;79;20894;-40
2021/12/17 04:44:29;;;;;;;6.08;1.80;;;;;;;4.40;75.23;99339.28;1807518;79;21535;-40
2021/12/17 04:57:17;;;;;;;8.10;2.00;;;;;;;4.42;75.19;99341.88;1807989;78;21858;-40
2021/12/17 04:57:44;;;;;;;7.50;2.25;;;;;;;4.28;75.42;99330.53;1807807;78;21028;-40
2021/12/17 05:00:20;;;;;;;6.47;2.22;;;;;;;4.31;75.56;99327.20;1807653;79;21120;-40
2021/12/17 05:02:52;;;;;;;6.42;2.33;;;;;;;4.29;75.51;99329.43;1807225;79;20941;-40
2021/12/17 05:05:19;;;;;;;;;;;;;;;4.28;75.64;99325.16;1810400;78;21337;-40
2021/12/17 05:07:56;;;;;;;5.37;2.12;;;;;;;4.27;75.50;99324.92;1807945;79;20192;-40
2021/12/17 05:18:50;;;;;;;4.67;1.90;;;;;;;4.14;75.75;99321.32;1807620;79;20984;-40
2021/12/17 05:21:09;;;;;;;6.20;2.17;;;;;;;4.13;75.75;99321.08;1805649;79;21064;-40
2021/12/17 05:23:43;;;;;;;5.62;2.00;;;;;;;4.19;75.72;99321.16;1807553;79;21076;-40
2021/12/17 05:26:13;;;;;;;8.90;2.45;;;;;;;4.24;75.64;99321.00;1807787;78;21801;-40
2021/12/17 05:28:42;;;;;;;5.95;2.20;;;;;;;4.24;75.58;99320.20;1807514;79;21474;-40
2021/12/17 05:31:09;;;;;;;4.92;2.22;;;;;;;4.21;75.62;99322.19;1807623;79;20906;-40
2021/12/17 05:33:38;;;;;;;5.70;2.25;;;;;;;4.22;75.57;99321.06;1807459;79;21020;-40
2021/12/17 05:36:05;;;;;;;5.80;2.35;;;;;;;4.08;75.34;99298.44;1802321;79;21052;-40
2021/12/17 05:38:32;;;;;;;6.28;2.47;;;;;;;4.28;75.37;99321.14;1799464;79;21121;-40
2021/12/17 05:41:00;;;;;;;7.10;2.52;;;;;;;4.27;75.41;99324.92;1799035;79;21285;-40
2021/12/17 05:43:29;;;;;;;6.60;2.25;;;;;;;4.24;75.32;99317.52;1798911;79;21069;-40
2021/12/17 05:48:26;;;;;;;8.43;2.50;;;;;;;4.33;75.19;99310.23;1799279;78;21064;-40
2021/12/17 05:50:55;;;;;;;4.50;2.20;;;;;;;4.39;75.13;99311.66;1799421;79;21121;-40
2021/12/17 05:53:22;;;;;;;5.83;2.50;;;;;;;4.38;75.06;99308.73;1799509;79;20914;-40
2021/12/17 05:55:50;;;;;;;6.95;2.02;;;;;;;4.33;75.09;99307.55;1799186;79;20966;-40
2021/12/17 05:58:17;;;;;;;6.67;2.50;;;;;;;4.30;74.92;99309.55;1799524;79;21080;-40
2021/12/17 06:00:44;;;;;;;5.72;1.95;;;;;;;4.33;75.06;99317.73;1799287;78;21598;-40
2021/12/17 06:03:19;;;;;;;7.97;2.30;;;;;;;4.38;74.92;99315.44;1795499;79;21949;-40
2021/12/17 06:05:48;;;;;;;7.03;2.20;;;;;;;4.35;74.96;99309.38;1797687;79;20985;-40
2021/12/17 06:08:15;;;;;;;7.17;2.33;;;;;;;4.28;74.93;99309.06;1799688;79;21037;-40
2021/12/17 06:10:42;;;;;;;5.70;1.95;;;;;;;4.23;75.07;99311.36;1799269;78;20997;-40
2021/12/17 06:13:09;;;;;;;7.37;2.33;;;;;;;4.27;75.10;99308.82;1799134;79;21029;-40
2021/12/17 06:15:37;;;;;;;6.95;2.20;;;;;;;4.29;74.96;99303.94;1799298;78;21571;-40
2021/12/17 06:18:05;;;;;;;5.12;1.75;;;;;;;4.26;75.09;99312.63;1799071;79;20966;-40
2021/12/17 06:20:32;;;;;;;5.58;2.35;;;;;;;4.24;75.16;99318.86;1799191;79;20917;-40
2021/12/17 06:23:00;;;;;;;8.95;2.15;;;;;;;4.22;75.11;99321.85;1799088;79;21004;-40
2021/12/17 06:25:27;;;;;;;2.95;1.40;;;;;;;4.22;74.82;99314.35;1799080;79;21009;-40
2021/12/17 06:27:53;;;;;;;4.67;1.82;;;;;;;4.18;74.79;99318.23;1799258;78;21964;-40
2021/12/17 06:30:21;;;;;;;3.27;1.30;;;;;;;4.16;75.08;99322.36;1799357;78;21566;-40
2021/12/17 06:32:48;;;;;;;2.77;1.32;;;;;;;4.13;75.10;99321.63;1799475;79;21017;-40
2021/12/17 06:35:17;;;;;;;3.37;1.37;;;;;;;4.09;75.31;99316.12;1798886;78;21052;-40
2021/12/17 06:37:43;;;;;;;7.20;1.67;;;;;;;4.10;75.34;99315.56;1799171;79;21048;-40
2021/12/17 06:40:13;;;;;;;5.17;1.87;;;;;;;4.12;75.50;99321.39;1798544;79;21123;-40
2021/12/17 06:42:40;;;;;;;2.90;1.45;;;;;;;4.13;75.71;99317.61;1799201;79;20989;-40
2021/12/17 06:45:18;;;;;;;4.45;1.60;;;;;;;4.13;75.78;99312.23;1799112;79;21004;-40
2021/12/17 06:47:39;;;;;;;3.22;1.70;;;;;;;4.12;75.84;99314.13;1798087;79;21013;-40
2021/12/17 07:06:00;;;;;;;3.75;1.45;;;;;;;4.02;76.78;99309.67;1817187;79;20966;-40
2021/12/17 07:11:34;;;;;;;4.03;1.77;;;;;;;3.97;77.04;99305.80;1816498;79;21489;-40
2021/12/17 07:22:17;;;;;;;5.40;2.00;;;;;;;4.13;77.08;99310.89;1817015;79;21488;-40
2021/12/17 07:35:48;;;;;;;5.53;2.12;;;;;;;4.40;76.39;99307.08;1815527;79;21008;-40
2021/12/17 07:41:00;;;;;;;4.53;1.90;;;;;;;4.42;76.17;99310.21;1784733;80;21109;-40
2021/12/17 07:43:37;;;;;;;4.97;1.95;;;;;;;4.51;75.84;99318.48;1784896;80;21015;-40
2021/12/17 07:45:58;;;;;;;4.85;1.85;;;;;;;4.53;75.60;99318.95;1786718;79;20948;-40
2021/12/17 07:48:26;;;;;;;5.87;2.10;;;;;;;4.53;75.68;99313.59;1793161;80;20944;-40
2021/12/17 07:50:59;;;;;;;5.40;2.00;;;;;;;4.53;75.36;99313.59;1797839;79;21130;-40
2021/12/17 07:53:31;;;;;;;5.00;2.00;;;;;;;4.50;74.99;99313.45;1795430;79;20944;-40
2021/12/17 07:56:01;;;;;;;4.60;1.60;;;;;;;4.48;75.02;99319.67;1799245;79;21000;-40
2021/12/17 07:58:30;;;;;;;7.30;1.87;;;;;;;4.53;75.17;99317.62;1799208;79;21738;-40
2021/12/17 08:00:58;;;;;;;4.90;2.02;;;;;;;4.55;75.25;99318.06;1799005;79;20980;-40
2021/12/17 08:03:25;;;;;;;4.67;1.98;;;;;;;4.58;75.28;99314.76;1798593;79;21062;-40
2021/12/17 08:05:58;;;;;;;5.35;1.87;;;;;;;4.59;75.16;99316.34;1798540;79;20995;-40
2021/12/17 08:08:25;;;;;;;4.55;1.90;;;;;;;4.62;74.98;99324.30;1798631;79;21003;-40
2021/12/17 08:10:54;;;;;;;6.97;2.17;;;;;;;4.70;74.86;99328.29;1798941;79;21079;-40
2021/12/17 08:13:26;;;;;;;5.05;2.20;;;;;;;4.77;74.78;99321.88;1798556;79;21027;-40
2021/12/17 08:16:46;;;;;;;5.70;1.90;;;;;;;4.79;74.67;99325.02;1798690;79;21177;-40
2021/12/17 08:26:42;;;;;;;5.20;1.72;;;;;;;4.89;74.61;99315.05;1794923;80;21051;-40
2021/12/17 08:31:53;;;;;;;3.87;1.70;;;;;;;4.97;74.36;99310.98;1794903;80;21482;-40
2021/12/17 08:34:22;;;;;;;4.60;1.70;;;;;;;4.96;73.90;99318.80;1794920;80;21043;-40
2021/12/17 08:36:49;;;;;;;5.05;1.60;;;;;;;4.89;73.74;99310.44;1794818;80;21059;-40
2021/12/17 08:39:16;;;;;;;5.95;2.17;;;;;;;4.87;73.67;99312.69;1794888;80;21074;-40
2021/12/17 08:41:49;;;;;;;4.50;1.82;;;;;;;4.88;73.68;99314.27;1794770;80;21138;-40
2021/12/17 08:44:15;;;;;;;5.28;1.87;;;;;;;4.93;73.76;99309.27;1794707;79;21482;-40
2021/12/17 08:46:43;;;;;;;6.90;2.20;;;;;;;4.90;73.89;99307.20;1791659;80;21493;-40
2021/12/17 08:49:21;;;;;;;5.90;1.98;;;;;;;4.89;74.14;99308.34;1794357;80;21032;-40
2021/12/17 08:51:50;;;;;;;4.85;1.85;;;;;;;4.90;74.25;99315.27;1782613;80;21070;-40
2021/12/17 08:54:17;;;;;;;6.37;2.08;;;;;;;4.95;74.36;99299.76;1794788;80;21839;-40
2021/12/17 08:56:47;;;;;;;8.00;2.58;;;;;;;5.08;74.13;99296.63;1794685;80;21043;-40
2021/12/17 08:59:17;;;;;;;4.95;1.85;;;;;;;5.13;73.87;99296.45;1794703;80;21820;-40
2021/12/17 09:01:49;;;;;;;6.65;2.25;;;;;;;5.14;73.92;99295.31;1785107;80;21024;-40
2021/12/17 09:04:16;;;;;;;3.52;1.92;;;;;;;5.16;73.68;99299.81;1794783;79;21489;-41
2021/12/17 09:06:45;;;;;;;5.55;1.80;;;;;;;5.20;73.56;99300.73;1794282;79;21843;-41
2021/12/17 09:09:17;;;;;;;5.08;2.10;;;;;;;5.24;72.91;99301.11;1794613;80;20939;-40
2021/12/17 09:11:40;;;;;;;4.15;1.70;;;;;;;5.29;72.75;99300.13;1794391;80;20990;-40
2021/12/17 09:14:10;;;;;;;4.33;1.67;;;;;;;5.31;72.66;99300.60;1793798;80;20968;-40
2021/12/17 09:16:38;;;;;;;4.17;1.80;;;;;;;5.31;72.61;99299.26;1792047;80;21047;-40
2021/12/17 09:19:09;;;;;;;3.45;1.47;;;;;;;5.35;72.50;99300.73;1794618;80;21050;-40
2021/12/17 09:21:38;;;;;;;5.80;1.72;;;;;;;5.35;71.77;99294.80;1794474;80;21525;-40
2021/12/17 09:24:07;;;;;;;5.65;2.20;;;;;;;5.29;71.59;99300.13;1793414;80;20947;-40
2021/12/17 09:26:42;;;;;;;4.00;1.80;;;;;;;5.33;71.84;99298.91;1746382;80;21485;-40
2021/12/17 09:29:09;;;;;;;4.87;1.75;;;;;;;5.31;71.83;99303.30;1794704;80;20972;-40
2021/12/17 09:31:36;;;;;;;5.28;1.90;;;;;;;5.29;71.77;99302.03;1794645;80;21137;-40
2021/12/17 09:34:04;;;;;;;6.65;1.90;;;;;;;5.27;71.64;99300.23;1794767;80;21508;-40
2021/12/17 09:36:31;;;;;;;5.67;1.72;;;;;;;5.21;71.58;99291.57;1794629;80;21185;-40
2021/12/17 09:38:58;;;;;;;5.60;1.80;;;;;;;5.21;71.90;99290.23;1794694;80;21007;-40
2021/12/17 09:41:26;;;;;;;3.92;1.87;;;;;;;5.23;71.44;99289.33;1794857;80;21466;-40
2021/12/17 09:43:54;;;;;;;3.22;1.50;;;;;;;5.19;71.20;99286.51;1794766;80;21134;-40
2021/12/17 09:46:21;;;;;;;5.75;1.57;;;;;;;5.14;71.31;99289.94;1794688;79;21447;-40
2021/12/17 09:48:49;;;;;;;4.15;1.70;;;;;;;5.11;71.48;99289.25;1794759;80;21003;-40
2021/12/17 09:51:18;;;;;;;3.22;1.15;;;;;;;5.08;71.39;99281.85;1790523;79;21508;-41
2021/12/17 09:53:46;;;;;;;5.17;2.00;;;;;;;5.11;71.35;99282.53;1788927;80;20980;-40
2021/12/17 09:56:13;;;;;;;5.17;1.50;;;;;;;5.15;71.14;99279.42;1788583;80;22575;-40
2021/12/17 09:58:41;;;;;;;2.77;1.82;;;;;;;5.17;71.03;99279.91;1788805;80;20913;-40
2021/12/17 10:01:08;;;;;;;2.83;1.40;;;;;;;5.14;71.01;99283.22;1788539;80;20959;-40
2021/12/17 10:03:35;;;;;;;4.65;1.60;;;;;;;5.10;71.02;99274.23;1788497;80;20924;-40
2021/12/17 10:06:02;;;;;;;4.45;1.60;;;;;;;5.07;71.06;99274.34;1788654;80;21004;-40
2021/12/17 10:08:28;;;;;;;4.70;1.42;;;;;;;5.06;71.04;99278.69;1788675;80;21128;-40
2021/12/17 10:11:01;;;;;;;4.05;1.40;;;;;;;5.06;71.11;99277.34;1788597;80;20916;-40
2021/12/17 10:13:33;;;;;;;5.95;1.90;;;;;;;5.08;70.97;99270.52;1788556;80;20983;-40
2021/12/17 10:16:08;;;;;;;4.65;1.60;;;;;;;5.08;70.89;99267.08;1788430;80;20992;-41
2021/12/17 10:18:42;;;;;;;8.43;2.58;;;;;;;5.07;71.03;99270.31;1788639;80;21493;-40
2021/12/17 10:21:22;;;;;;;6.22;2.80;;;;;;;5.07;70.91;99266.84;1788490;80;21149;-41
2021/12/17 10:23:50;;;;;;;6.03;2.20;;;;;;;5.08;70.99;99265.73;1788671;80;20897;-40
2021/12/17 10:26:20;;;;;;;3.20;1.60;;;;;;;5.13;71.19;99263.62;1782881;80;20971;-40
2021/12/17 10:28:59;;;;;;;5.33;1.77;;;;;;;5.24;70.75;99255.97;1788687;80;21003;-40
2021/12/17 10:31:27;;;;;;;4.50;2.00;;;;;;;5.30;70.69;99259.25;1788592;80;21047;-40
2021/12/17 10:34:00;;;;;;;2.33;1.37;;;;;;;5.31;70.76;99253.56;1788561;80;21808;-40
2021/12/17 10:36:43;;;;;;;6.83;1.45;;;;;;;5.32;70.61;99244.95;1788431;80;21624;-40
2021/12/17 10:39:23;;;;;;;2.70;1.17;;;;;;;5.32;70.42;99249.77;1788664;80;21264;-40
2021/12/17 10:41:51;;;;;;;2.95;1.37;;;;;;;5.28;69.73;99244.03;1787400;80;21025;-40
2021/12/17 10:44:20;;;;;;;2.87;1.20;;;;;;;5.22;69.82;99239.40;1788639;80;21008;-40
2021/12/17 10:47:15;;;;;;;2.52;1.15;;;;;;;4.94;69.88;99192.65;1789042;80;21076;-40
2021/12/17 10:49:36;;;;;;;4.22;1.75;;;;;;;5.28;69.82;99244.03;1787617;80;21281;-40
2021/12/17 10:52:14;;;;;;;3.65;1.52;;;;;;;5.22;70.05;99245.56;1758486;80;20920;-40
2021/12/17 10:54:35;;;;;;;4.53;1.40;;;;;;;5.19;69.67;99244.06;1787474;80;21063;-40
2021/12/17 10:57:07;;;;;;;3.72;1.75;;;;;;;5.16;69.62;99240.14;1788617;80;20968;-41
2021/12/17 10:59:35;;;;;;;3.27;1.45;;;;;;;5.16;69.79;99242.04;1788826;80;21108;-40
2021/12/17 11:02:07;;;;;;;4.33;1.40;;;;;;;5.14;69.73;99239.67;1788438;80;20987;-40
2021/12/17 11:04:37;;;;;;;3.98;1.70;;;;;;;5.21;69.68;99234.58;1788737;80;20968;-40
2021/12/17 11:07:13;;;;;;;3.05;1.62;;;;;;;5.24;69.56;99243.33;1788638;80;21063;-40
2021/12/17 11:10:00;;;;;;;2.37;1.25;;;;;;;5.24;69.31;99241.19;1788671;80;21011;-40
2021/12/17 11:12:41;;;;;;;1.67;0.90;;;;;;;5.20;68.90;99245.09;1788733;80;21959;-40
2021/12/17 11:15:30;;;;;;;1.10;0.60;;;;;;;5.16;68.17;99242.04;1788543;80;21018;-40
2021/12/17 11:18:04;;;;;;;1.25;0.50;;;;;;;5.06;67.24;99244.55;1788664;80;21048;-40
2021/12/17 11:20:36;;;;;;;0.60;0.45;;;;;;;4.93;67.38;99248.82;1788108;80;20989;-40
2021/12/17 11:23:09;;;;;;;0.50;0.40;;;;;;;4.81;66.97;99248.16;1788522;80;20996;-40
2021/12/17 11:25:37;;;;;;;1.77;0.62;;;;;;;4.76;67.50;99240.28;1788553;80;21144;-41
2021/12/17 11:28:05;;;;;;;1.75;0.50;;;;;;;4.77;67.61;99235.94;1788396;80;20948;-41
2021/12/17 11:30:36;;;;;;;1.15;0.47;;;;;;;4.79;67.66;99236.97;1788727;80;20940;-41
2021/12/17 11:33:04;;;;;;;1.77;0.95;;;;;;;4.84;67.67;99234.66;1788765;80;21015;-40
2021/12/17 11:35:36;;;;;;;3.33;1.47;;;;;;;4.89;67.63;99237.16;1788949;80;20942;-40
2021/12/17 11:38:15;;;;;;;2.58;1.20;;;;;;;4.90;67.50;99233.34;1788294;80;21136;-40
2021/12/17 11:40:55;;;;;;;2.27;1.10;;;;;;;4.90;67.71;99241.39;1788644;80;20983;-40
2021/12/17 11:43:59;;;;;;;3.40;1.20;;;;;;;4.93;68.01;99236.73;1788548;80;20994;-40
2021/12/17 11:46:32;;;;;;;2.65;1.57;;;;;;;4.97;68.01;99241.69;1788747;80;21027;-40
2021/12/17 11:49:02;;;;;;;2.37;1.27;;;;;;;5.01;68.32;99243.39;1788772;80;20995;-40
2021/12/17 11:51:33;;;;;;;2.20;0.98;;;;;;;5.01;68.72;99257.38;1788178;80;21123;-40
2021/12/17 11:54:11;;;;;;;1.75;0.90;;;;;;;4.91;68.46;99259.88;1788726;80;21066;-40
2021/12/17 11:56:52;;;;;;;2.60;1.10;;;;;;;4.77;68.95;99260.11;1789208;80;20948;-40
2021/12/17 11:59:32;;;;;;;3.42;0.98;;;;;;;4.71;69.44;99253.34;1788737;80;21522;-40
2021/12/17 12:02:22;;;;;;;1.37;0.98;;;;;;;4.65;69.70;99253.28;1788647;80;21082;-40
2021/12/17 12:04:58;;;;;;;1.62;0.90;;;;;;;4.67;70.06;99248.94;1788749;80;21467;-40
2021/12/17 12:07:30;;;;;;;1.65;0.85;;;;;;;4.68;70.43;99245.94;1788861;80;20904;-40
2021/12/17 12:10:02;;;;;;;1.07;0.70;;;;;;;4.69;70.51;99257.47;1788804;80;21015;-40
2021/12/17 12:12:50;;;;;;;1.72;0.90;;;;;;;4.38;70.50;99204.05;1788584;80;20999;-40
2021/12/17 12:15:27;;;;;;;2.22;1.00;;;;;;;4.70;70.49;99250.97;1788833;80;21609;-40
2021/12/17 12:18:08;;;;;;;1.75;0.80;;;;;;;4.71;70.32;99253.89;1787555;79;21145;-40
2021/12/17 12:20:51;;;;;;;3.67;1.17;;;;;;;4.76;70.33;99249.13;1762625;79;20995;-39
2021/12/17 12:23:36;;;;;;;1.92;0.90;;;;;;;4.89;70.07;99254.61;1789060;79;20959;-38
2021/12/17 12:26:11;;;;;;;1.77;0.98;;;;;;;4.90;69.67;99246.77;1793349;79;21576;-39
2021/12/17 12:28:53;;;;;;;4.00;1.60;;;;;;;4.87;69.75;99247.42;1796102;79;21097;-39
2021/12/17 12:31:32;;;;;;;1.47;0.90;;;;;;;4.84;70.02;99255.59;1785644;80;21038;-39
2021/12/17 12:34:13;;;;;;;3.33;1.17;;;;;;;4.84;70.30;99250.77;1757861;80;21016;-39
2021/12/17 12:37:00;;;;;;;2.55;1.20;;;;;;;4.84;70.17;99252.11;1768914;78;20947;-39
2021/12/17 12:39:52;;;;;;;2.40;1.20;;;;;;;4.90;70.07;99249.45;1782047;78;21459;-39
2021/12/17 12:42:30;;;;;;;2.72;1.35;;;;;;;4.93;69.75;99251.51;1788396;80;20983;-39
2021/12/17 12:45:03;;;;;;;1.87;1.15;;;;;;;4.94;69.90;99263.25;1774057;80;21156;-39
2021/12/17 12:47:46;;;;;;;3.77;1.30;;;;;;;4.94;69.86;99259.22;1757958;80;20922;-39
2021/12/17 12:50:25;;;;;;;2.70;0.93;;;;;;;4.93;69.88;99261.70;1746839;81;21490;-39
2021/12/17 12:53:00;;;;;;;1.27;0.78;;;;;;;4.90;69.29;99261.54;1773813;79;21475;-39
2021/12/17 12:55:45;;;;;;;1.95;0.80;;;;;;;4.79;68.83;99265.17;1777720;79;20982;-39
2021/12/17 12:58:30;;;;;;;1.35;0.68;;;;;;;4.68;68.81;99274.69;1777548;80;21104;-39
2021/12/17 13:00:59;;;;;;;1.20;0.75;;;;;;;4.60;68.57;99271.49;1748322;80;20942;-39
2021/12/17 13:03:28;;;;;;;2.65;0.90;;;;;;;4.53;68.71;99270.64;1748159;80;21546;-39
2021/12/17 13:05:55;;;;;;;3.37;1.00;;;;;;;4.49;69.05;99269.70;1755637;80;21503;-39
2021/12/17 13:08:23;;;;;;;1.90;1.07;;;;;;;4.42;69.21;99266.72;1760740;80;21538;-39
2021/12/17 13:10:58;;;;;;;1.30;0.75;;;;;;;4.37;69.63;99265.55;1742078;80;21123;-39
2021/12/17 13:13:35;;;;;;;4.17;1.35;;;;;;;4.33;69.77;99272.66;1770415;80;20938;-39
2021/12/17 13:16:21;;;;;;;3.90;1.15;;;;;;;4.29;69.99;99271.73;1777352;80;21461;-39
2021/12/17 13:21:46;;;;;;;4.50;1.40;;;;;;;4.35;70.04;99273.14;1777630;80;21013;-39
2021/12/17 13:24:18;;;;;;;3.90;1.98;;;;;;;4.35;69.92;99269.13;1758275;80;21160;-39
2021/12/17 13:26:53;;;;;;;2.83;1.70;;;;;;;4.32;70.01;99276.45;1746732;82;21506;-39
2021/12/17 13:29:33;;;;;;;1.50;1.10;;;;;;;4.32;70.12;99277.24;1746704;82;21017;-39
2021/12/17 13:32:04;;;;;;;2.08;1.37;;;;;;;4.35;70.02;99281.20;1753837;80;21060;-39
2021/12/17 13:34:44;;;;;;;2.58;1.20;;;;;;;4.33;69.89;99282.84;1777213;79;21068;-39
2021/12/17 13:37:22;;;;;;;3.12;1.50;;;;;;;4.35;70.02;99281.20;1774728;80;21129;-39
2021/12/17 13:39:59;;;;;;;1.87;1.10;;;;;;;4.43;69.70;99288.43;1769221;81;20944;-39
2021/12/17 13:42:32;;;;;;;1.90;1.20;;;;;;;4.44;69.59;99284.64;1761014;80;21035;-39
2021/12/17 13:45:02;;;;;;;2.30;1.00;;;;;;;4.44;69.45;99285.98;1765423;80;20977;-39
2021/12/17 13:47:40;;;;;;;1.62;1.15;;;;;;;4.41;69.46;99296.00;1759599;79;21071;-39
2021/12/17 13:50:14;;;;;;;2.08;0.90;;;;;;;4.38;69.41;99291.28;1727580;82;21220;-39
2021/12/17 13:52:49;;;;;;;2.40;1.07;;;;;;;4.31;69.55;99290.42;1759329;80;20998;-40
2021/12/17 13:55:20;;;;;;;3.40;1.25;;;;;;;4.31;69.68;99295.00;1774023;80;21513;-39
2021/12/17 13:57:47;;;;;;;2.42;1.00;;;;;;;4.34;69.54;99290.35;1772621;80;21270;-40
2021/12/17 14:00:20;;;;;;;2.37;1.10;;;;;;;4.39;69.52;99296.89;1773733;80;21547;-40
2021/12/17 14:02:48;;;;;;;2.58;1.22;;;;;;;4.43;69.55;99305.08;1760131;80;21090;-40
2021/12/17 14:05:40;;;;;;;3.25;1.20;;;;;;;4.41;69.49;99297.89;1761739;80;20965;-40
2021/12/17 14:08:01;;;;;;;3.10;1.20;;;;;;;4.39;69.45;99292.87;1771268;78;20932;-40
2021/12/17 14:10:35;;;;;;;3.85;1.50;;;;;;;4.38;69.59;99296.65;1753168;80;21059;-40
2021/12/17 14:13:05;;;;;;;3.58;1.47;;;;;;;4.37;69.63;99303.12;1783805;80;21090;-40
2021/12/17 14:15:34;;;;;;;2.58;1.07;;;;;;;4.40;69.52;99310.55;1789145;80;21120;-40
2021/12/17 14:18:06;;;;;;;2.65;1.52;;;;;;;4.41;69.55;99307.29;1772996;80;22141;-40
2021/12/17 14:20:47;;;;;;;3.47;2.15;;;;;;;4.42;69.55;99302.95;1779536;79;21019;-40
2021/12/17 14:23:19;;;;;;;2.92;1.70;;;;;;;4.37;69.65;99305.25;1757492;81;21939;-41
2021/12/17 14:25:53;;;;;;;3.90;1.80;;;;;;;4.35;70.09;99305.35;1785278;80;21517;-40